MUHA/HAV METAR and TAF weather

Enter ICAO airport designator
Station Type Date Time Source
MUHA METAR 2022/01/26 13:50 UTC NOAA

MUHA 261350Z 20008KT 170V230 9000 FEW025 24/24 Q1017


Station Type Date Time Source
MUHA Decoded METAR 2022/01/26 13:50 UTC NOAA

Aeropuerto Jose Marti, Rancho-Boyeros, Habana, Cuba (MUHA) 22-59N 082-24W 75M
Jan 26, 2022 - 08:50 AM EST / 2022.01.26 1350 UTC
Wind: from the SSW (200 degrees) at 9 MPH (8 KT) (direction variable):0
Visibility: 5 mile(s):0
Sky conditions: mostly clear
Temperature: 75 F (24 C)
Dew Point: 75 F (24 C)
Relative Humidity: 100%
Pressure (altimeter): 30.03 in. Hg (1017 hPa)
ob: MUHA 261350Z 20008KT 170V230 9000 FEW025 24/24 Q1017
cycle: 14

Station Type Date Time Source
MUHA TAF 2022/01/26 12:03 UTC NOAA

TAF MUHA 261100Z 2612/2712 18012KT 9000 FEW030
BECMG 2621/2622 BKN030
TEMPO 2623/2703 VRB10KT 5000 SHRA FEW018CB BKN020
BECMG 2704/2705 VRB03KT

Example: see airport list